Berlin, MA

7:56 PM EDT on September 04, 2015 (GMT -0400)
Ball Hill Rd Berlin, MA | | Change Station
CLOSE
Current Station
Personal Weather Station
Location: Berlin, MA
Elevation: 659 ft
Nearby Weather Stations

Elev 659 ft 42.36 °N, 71.67 °W | Updated 3 minutes ago

Clear
Clear
63.0 °F
Feels Like 63.0 °F
N
0.0
Wind Variable Wind from SSW

Today
High -- | Low -- °F
--% Chance of Precip.
Yesterday
High -- | Low -- °F
Precip. -- in
6:14 AM 7:15 PM
Waning Gibbous, 55% visible
Pressure 30.24 in
Visibility 10.0 miles
Clouds Clear
Dew Point 56 °F
Humidity 79%
Rainfall 0.00 in
Snow Depth Not available.
UV 0 out of 12
Pollen 8.70 out of 12
Air Quality Not available.
Flu Activity Not available.
METAR KFIT 042352Z AUTO 11004KT 10SM CLR 19/11 A3024 RMK AO2 SLP239 T01940111 10261 20194 53015
Pressure 30.24 in
Visibility 10.0 miles
Clouds Clear
Dew Point 56 °F
Humidity 79%
Rainfall 0.00 in
Snow Depth Not available.
UV 0 out of 12
Pollen 8.70 out of 12
Air Quality Not available.
Flu Activity Not available.
METAR KFIT 042352Z AUTO 11004KT 10SM CLR 19/11 A3024 RMK AO2 SLP239 T01940111 10261 20194 53015

10-Day Weather Forecast

×

Almanac

Astronomy

Sep. 04, 2015 Rise Set
Actual Time
Civil Twilight
Nautical Twilight
Astronomical Twilight
Moon
Length of Visible Light
Length of Day
Tomorrow will be .
, % of the Moon is Illuminated

Today's Extremes

State Highs State Lows

Community

WunderPhotos

Upload Photos

1,852,338 photos uploaded!

WunderBlogs® & News

Nearby

Air Quality

  Air Quality AQ Index Pollutant
Not available.

Snow Depth

Station Depth Elevation

Earthquake Activity

City Distance Mag. Time & Date
Minimum magnitude displayed is 2.5.

Coastal Water Temperatures

Place Temperature

Stations

Nearby Weather Stations

Station Location Temp. Windchill Dew Point Humidity Wind Precip. Elev Updated Type